Time;durP1;ratioP1;P1;durP2;ratioP2;P2;SDS_P1;SDS_P2;PMS_P1;PMS_P2;Temp;Humidity;BMP_temperature;BMP_pressure;BME280_temperature;BME280_humidity;BME280_pressure;Samples;Min_cycle;Max_cycle;Signal;HPM_P1;HPM_P2
2022/05/22 03:00:30;;;;;;;0.70;0.65;;;26.20;41.30;;;;;;6026117;23;45988;-62
2022/05/22 03:02:56;;;;;;;0.95;0.50;;;26.20;41.30;;;;;;4917296;28;47364;-60
2022/05/22 03:05:21;;;;;;;1.45;0.50;;;26.20;41.20;;;;;;4958186;28;45191;-60
2022/05/22 03:07:47;;;;;;;0.80;0.60;;;26.20;41.20;;;;;;4937813;28;45627;-60
2022/05/22 03:10:13;;;;;;;0.52;0.50;;;26.20;41.20;;;;;;4955018;28;45271;-58
2022/05/22 03:12:39;;;;;;;1.42;0.50;;;26.20;41.30;;;;;;4938014;28;45197;-57
2022/05/22 03:15:07;;;;;;;0.50;0.50;;;26.20;41.20;;;;;;4926092;28;45363;-60
2022/05/22 03:17:33;;;;;;;0.50;0.40;;;26.20;41.30;;;;;;4923977;28;45209;-56
2022/05/22 03:19:58;;;;;;;0.70;0.40;;;26.20;41.30;;;;;;4959201;28;45711;-56
2022/05/22 03:22:24;;;;;;;1.88;0.50;;;26.20;41.30;;;;;;4956339;28;46443;-59
2022/05/22 03:24:50;;;;;;;0.90;0.47;;;26.20;41.40;;;;;;4958261;28;44913;-56
2022/05/22 03:27:16;;;;;;;0.73;0.50;;;26.20;41.40;;;;;;4958660;28;45254;-59
2022/05/22 03:29:42;;;;;;;0.40;0.40;;;26.20;41.40;;;;;;4957939;28;45588;-59
2022/05/22 03:32:08;;;;;;;0.88;0.70;;;26.10;41.40;;;;;;4957933;28;46192;-57
2022/05/22 03:34:34;;;;;;;0.70;0.50;;;26.20;41.40;;;;;;4948312;28;46425;-59
2022/05/22 03:37:00;;;;;;;1.67;0.60;;;26.20;41.40;;;;;;4957680;28;45926;-57
2022/05/22 03:39:26;;;;;;;1.35;0.70;;;26.20;41.40;;;;;;4958994;28;44790;-59
2022/05/22 03:41:51;;;;;;;1.08;0.70;;;26.10;41.40;;;;;;4957406;28;45449;-59
2022/05/22 03:44:17;;;;;;;1.70;0.73;;;26.10;41.40;;;;;;4954167;28;45218;-55
2022/05/22 03:46:44;;;;;;;2.20;0.80;;;26.20;41.40;;;;;;4954400;28;45556;-60
2022/05/22 03:49:10;;;;;;;0.60;0.50;;;26.20;41.50;;;;;;4953040;28;46180;-58
2022/05/22 03:51:35;;;;;;;0.40;0.40;;;26.20;41.50;;;;;;4955780;28;45397;-60
2022/05/22 03:54:01;;;;;;;1.83;0.55;;;26.20;41.50;;;;;;4956068;28;44971;-57
2022/05/22 03:56:26;;;;;;;0.60;0.43;;;26.10;41.40;;;;;;4957347;28;45602;-56
2022/05/22 03:58:52;;;;;;;0.50;0.50;;;26.10;41.50;;;;;;4953872;28;45630;-55
2022/05/22 04:01:18;;;;;;;1.10;0.43;;;26.10;41.50;;;;;;4952148;28;46390;-57
2022/05/22 04:03:43;;;;;;;0.60;0.50;;;26.10;41.60;;;;;;4956039;28;45296;-60
2022/05/22 04:06:10;;;;;;;0.63;0.60;;;26.10;41.60;;;;;;4956099;28;45071;-63
2022/05/22 04:08:35;;;;;;;0.60;0.57;;;26.10;41.60;;;;;;4957148;28;45563;-60
2022/05/22 04:11:12;;;;;;;1.17;0.50;;;26.10;41.60;;;;;;4956967;28;46165;-57
2022/05/22 04:13:38;;;;;;;0.65;0.55;;;26.10;41.80;;;;;;4954850;28;44878;-57
2022/05/22 04:16:03;;;;;;;2.15;0.68;;;26.10;41.70;;;;;;4956747;28;45507;-60
2022/05/22 04:18:29;;;;;;;0.93;0.60;;;26.10;41.70;;;;;;4955852;28;45512;-60
2022/05/22 04:20:55;;;;;;;2.88;0.70;;;26.10;41.70;;;;;;4953404;28;46668;-56
2022/05/22 04:26:04;;;;;;;1.58;0.60;;;26.10;41.70;;;;;;4956735;28;45185;-57
2022/05/22 04:28:30;;;;;;;0.75;0.60;;;26.10;41.80;;;;;;4955048;28;46182;-58
2022/05/22 04:30:56;;;;;;;0.77;0.45;;;26.10;41.80;;;;;;4952961;28;46090;-55
2022/05/22 04:33:22;;;;;;;0.88;0.73;;;26.10;41.80;;;;;;4959059;28;45354;-58
2022/05/22 04:35:48;;;;;;;0.52;0.45;;;26.10;41.80;;;;;;4958068;28;45452;-57
2022/05/22 04:38:14;;;;;;;0.77;0.57;;;26.10;41.80;;;;;;4959234;28;44971;-54
2022/05/22 04:40:40;;;;;;;1.63;0.77;;;26.10;41.80;;;;;;4954652;28;46192;-61
2022/05/22 04:43:05;;;;;;;0.70;0.50;;;26.10;41.90;;;;;;4951754;28;45574;-58
2022/05/22 04:45:34;;;;;;;0.60;0.60;;;26.10;41.90;;;;;;4953911;28;45396;-57
2022/05/22 04:48:00;;;;;;;0.40;0.40;;;26.10;41.90;;;;;;4949636;28;45624;-58
2022/05/22 04:50:25;;;;;;;0.52;0.50;;;26.10;41.90;;;;;;4954960;28;46257;-57
2022/05/22 04:52:51;;;;;;;0.88;0.50;;;26.10;41.90;;;;;;4954983;28;46973;-57
2022/05/22 04:55:16;;;;;;;0.73;0.60;;;26.10;41.90;;;;;;4953078;28;45127;-57
2022/05/22 04:57:43;;;;;;;0.70;0.60;;;26.10;41.90;;;;;;4957398;28;45465;-55
2022/05/22 05:00:10;;;;;;;0.50;0.50;;;26.10;41.90;;;;;;4952086;28;45569;-60
2022/05/22 05:02:36;;;;;;;1.20;0.50;;;26.10;41.90;;;;;;4953631;28;45192;-59
2022/05/22 05:05:05;;;;;;;0.52;0.52;;;26.10;41.90;;;;;;4955807;28;45196;-56
2022/05/22 05:07:31;;;;;;;1.33;0.65;;;26.10;42.00;;;;;;4956903;28;45252;-59
2022/05/22 05:09:56;;;;;;;0.95;0.60;;;26.10;42.00;;;;;;4949257;28;46295;-57
2022/05/22 05:12:22;;;;;;;0.63;0.57;;;26.10;42.00;;;;;;4954000;28;45213;-59
2022/05/22 05:14:47;;;;;;;0.90;0.70;;;26.10;42.00;;;;;;4953921;28;45291;-59
2022/05/22 05:17:15;;;;;;;0.65;0.50;;;26.10;41.90;;;;;;4957604;28;45507;-60
2022/05/22 05:19:40;;;;;;;1.85;0.80;;;26.20;42.00;;;;;;4952067;28;46225;-61
2022/05/22 05:22:06;;;;;;;1.77;0.88;;;26.30;41.90;;;;;;4952186;28;45332;-57
2022/05/22 05:24:31;;;;;;;0.45;0.45;;;26.30;41.70;;;;;;4956779;28;45192;-59
2022/05/22 05:26:57;;;;;;;0.55;0.50;;;26.40;41.60;;;;;;4953916;28;45447;-60
2022/05/22 05:29:23;;;;;;;0.50;0.50;;;26.60;41.40;;;;;;4952715;28;45336;-63
2022/05/22 05:31:48;;;;;;;0.60;0.60;;;26.70;41.10;;;;;;4941790;28;45573;-60
2022/05/22 05:34:14;;;;;;;1.33;0.80;;;26.80;41.00;;;;;;4947834;28;45803;-60
2022/05/22 05:36:40;;;;;;;1.85;0.75;;;26.90;40.80;;;;;;4949494;28;45244;-61
2022/05/22 05:39:06;;;;;;;2.25;0.55;;;27.00;40.60;;;;;;4949588;28;46211;-59
2022/05/22 05:41:31;;;;;;;1.05;0.60;;;27.00;40.50;;;;;;4949527;28;45815;-61
2022/05/22 05:43:57;;;;;;;2.08;0.55;;;27.10;40.50;;;;;;4950106;28;45286;-60
2022/05/22 05:46:22;;;;;;;1.10;0.70;;;27.10;40.60;;;;;;4951796;28;44758;-57
2022/05/22 05:48:48;;;;;;;1.20;0.60;;;27.00;40.60;;;;;;4947909;28;46964;-59
2022/05/22 05:51:14;;;;;;;1.35;0.50;;;26.90;40.80;;;;;;4948759;28;45572;-63
2022/05/22 05:53:39;;;;;;;3.22;1.00;;;26.90;40.90;;;;;;4951660;28;45453;-61
2022/05/22 05:56:05;;;;;;;2.03;0.60;;;26.90;40.90;;;;;;4949117;28;44781;-60
2022/05/22 05:58:31;;;;;;;0.60;0.60;;;26.80;41.00;;;;;;4949384;28;45385;-61
2022/05/22 06:00:57;;;;;;;1.20;0.73;;;26.80;41.10;;;;;;4945481;28;45004;-56
2022/05/22 06:03:22;;;;;;;1.20;0.75;;;26.70;41.10;;;;;;4949017;28;45466;-59
2022/05/22 06:05:48;;;;;;;1.45;0.70;;;26.80;41.20;;;;;;4947201;28;45610;-60
2022/05/22 06:08:14;;;;;;;0.98;0.70;;;26.80;41.20;;;;;;4949612;28;45984;-60
2022/05/22 06:10:39;;;;;;;0.50;0.50;;;26.70;41.20;;;;;;4948355;28;45192;-61
2022/05/22 06:13:08;;;;;;;0.95;0.60;;;26.70;41.20;;;;;;4952028;28;45644;-63
2022/05/22 06:15:33;;;;;;;1.10;0.80;;;26.70;41.30;;;;;;4952942;28;45372;-59
2022/05/22 06:17:59;;;;;;;0.55;0.50;;;26.70;41.30;;;;;;4951481;28;45479;-60
2022/05/22 06:20:25;;;;;;;2.00;0.80;;;26.70;41.30;;;;;;4949555;28;45443;-59
2022/05/22 06:22:50;;;;;;;1.05;0.50;;;26.80;41.40;;;;;;4951356;28;45595;-60
2022/05/22 06:25:17;;;;;;;0.50;0.50;;;26.80;41.30;;;;;;4951376;28;45689;-59
2022/05/22 06:27:43;;;;;;;1.15;0.73;;;26.80;41.20;;;;;;4950333;28;46006;-59
2022/05/22 06:30:12;;;;;;;1.02;0.50;;;26.90;41.20;;;;;;4947880;28;45548;-60
2022/05/22 06:32:39;;;;;;;0.80;0.60;;;26.90;41.20;;;;;;4949593;28;45681;-60
2022/05/22 06:35:05;;;;;;;1.23;0.70;;;26.90;41.20;;;;;;4952052;28;44809;-60
2022/05/22 06:37:31;;;;;;;0.50;0.50;;;27.00;41.10;;;;;;4952151;28;46116;-58
2022/05/22 06:39:56;;;;;;;1.63;0.70;;;27.00;41.10;;;;;;4950874;28;45067;-61
2022/05/22 06:42:34;;;;;;;1.42;0.73;;;27.00;41.00;;;;;;4949670;28;45008;-60
2022/05/22 06:45:11;;;;;;;0.93;0.77;;;27.10;41.70;;;;;;4950053;28;45385;-59
2022/05/22 06:47:36;;;;;;;0.88;0.68;;;27.10;41.00;;;;;;4952706;28;46669;-62
2022/05/22 06:50:04;;;;;;;0.80;0.70;;;27.20;40.90;;;;;;4951243;28;45488;-61
2022/05/22 06:52:30;;;;;;;1.58;0.75;;;27.20;40.80;;;;;;4950600;28;45707;-60
2022/05/22 06:54:55;;;;;;;0.80;0.60;;;27.30;40.90;;;;;;4950908;28;45739;-59
2022/05/22 06:57:21;;;;;;;1.60;0.80;;;27.20;40.80;;;;;;4951931;28;46140;-57
2022/05/22 06:59:47;;;;;;;1.10;0.60;;;27.20;40.80;;;;;;4950736;28;44982;-62
2022/05/22 07:02:13;;;;;;;2.83;0.80;;;27.30;40.90;;;;;;4947917;28;46812;-60
2022/05/22 07:04:39;;;;;;;0.85;0.70;;;27.30;40.90;;;;;;4951168;28;46817;-59
2022/05/22 07:07:05;;;;;;;0.88;0.70;;;27.30;40.90;;;;;;4949577;28;46101;-60
2022/05/22 07:09:31;;;;;;;1.05;0.60;;;27.30;41.00;;;;;;4947826;28;45458;-60
2022/05/22 07:11:59;;;;;;;0.60;0.60;;;27.30;41.00;;;;;;4950916;28;45326;-59
2022/05/22 07:14:25;;;;;;;0.80;0.60;;;27.30;41.10;;;;;;4949751;28;45362;-60
2022/05/22 07:16:51;;;;;;;1.15;0.40;;;27.20;41.10;;;;;;4950534;28;46295;-61
2022/05/22 07:19:17;;;;;;;0.60;0.50;;;27.20;41.10;;;;;;4946722;28;45317;-60
2022/05/22 07:21:43;;;;;;;0.68;0.60;;;27.30;41.20;;;;;;4949203;28;46140;-61
2022/05/22 07:24:08;;;;;;;0.70;0.50;;;27.20;41.20;;;;;;4948586;28;45327;-61
2022/05/22 07:26:34;;;;;;;0.75;0.60;;;27.20;41.20;;;;;;4949081;28;46077;-61
2022/05/22 07:29:01;;;;;;;0.73;0.50;;;27.20;41.20;;;;;;4949044;28;45479;-61
2022/05/22 07:31:27;;;;;;;0.80;0.50;;;27.20;41.30;;;;;;4949199;28;45576;-60
2022/05/22 07:33:52;;;;;;;0.75;0.60;;;27.20;41.20;;;;;;4946591;28;45364;-62
2022/05/22 07:36:18;;;;;;;0.95;0.70;;;27.30;41.30;;;;;;4948307;28;46228;-60
2022/05/22 07:38:44;;;;;;;0.57;0.57;;;27.30;41.30;;;;;;4946104;28;45583;-61
2022/05/22 07:41:10;;;;;;;0.80;0.60;;;27.30;41.20;;;;;;4950849;28;45542;-59
2022/05/22 07:43:35;;;;;;;0.90;0.70;;;27.30;41.20;;;;;;4950151;28;45816;-60
2022/05/22 07:46:01;;;;;;;0.82;0.70;;;27.30;41.20;;;;;;4950649;28;45980;-59
2022/05/22 07:48:27;;;;;;;0.50;0.50;;;27.30;41.20;;;;;;4948325;28;45458;-60
2022/05/22 07:50:57;;;;;;;0.85;0.70;;;27.30;41.20;;;;;;4948163;28;44685;-60
2022/05/22 07:53:23;;;;;;;1.02;0.63;;;27.30;41.20;;;;;;4946299;28;44885;-59
2022/05/22 07:55:49;;;;;;;0.98;0.68;;;27.30;41.20;;;;;;4949141;28;45989;-60
2022/05/22 07:58:15;;;;;;;1.50;0.70;;;27.40;41.30;;;;;;4950268;28;45771;-63
2022/05/22 08:00:41;;;;;;;0.75;0.57;;;27.40;41.20;;;;;;4949005;28;45471;-60
2022/05/22 08:03:13;;;;;;;0.43;0.43;;;27.40;41.20;;;;;;4949869;28;45194;-60
2022/05/22 08:05:39;;;;;;;0.88;0.63;;;27.40;41.20;;;;;;4948245;28;46785;-63
2022/05/22 08:08:05;;;;;;;1.10;0.73;;;27.40;41.10;;;;;;4933794;28;45363;-61
2022/05/22 08:10:31;;;;;;;0.70;0.50;;;27.40;41.10;;;;;;4949552;28;46217;-60
2022/05/22 08:12:56;;;;;;;1.33;0.57;;;27.50;41.20;;;;;;4950428;28;45276;-60
2022/05/22 08:15:25;;;;;;;0.57;0.55;;;27.50;41.20;;;;;;4951067;28;45839;-61
2022/05/22 08:17:50;;;;;;;0.80;0.50;;;27.50;41.20;;;;;;4951238;28;44673;-59
2022/05/22 08:20:18;;;;;;;0.82;0.60;;;27.40;41.70;;;;;;4949894;28;45300;-57
2022/05/22 08:22:44;;;;;;;0.50;0.50;;;27.50;41.20;;;;;;4951743;28;46627;-60
2022/05/22 08:25:10;;;;;;;0.75;0.68;;;27.40;41.00;;;;;;4950754;28;46084;-58
2022/05/22 08:27:35;;;;;;;1.02;0.70;;;27.50;41.10;;;;;;4952835;28;45248;-63
2022/05/22 08:30:01;;;;;;;0.77;0.65;;;27.50;41.00;;;;;;4950413;28;45493;-60
2022/05/22 08:32:27;;;;;;;0.57;0.50;;;27.50;41.00;;;;;;4953678;28;45433;-60
2022/05/22 08:34:53;;;;;;;0.50;0.50;;;27.50;41.00;;;;;;4951578;28;46145;-59
2022/05/22 08:37:19;;;;;;;1.00;0.57;;;27.60;41.00;;;;;;4949725;28;45854;-61
2022/05/22 08:39:44;;;;;;;0.57;0.57;;;27.60;41.00;;;;;;4947774;28;45294;-59
2022/05/22 08:42:15;;;;;;;1.30;0.50;;;27.50;41.00;;;;;;4919037;28;44905;-62
2022/05/22 08:44:41;;;;;;;0.77;0.60;;;27.60;41.00;;;;;;4934705;28;45814;-59
2022/05/22 08:47:23;;;;;;;0.80;0.60;;;27.60;41.00;;;;;;4935747;28;47161;-61
2022/05/22 08:49:50;;;;;;;0.70;0.50;;;27.60;40.90;;;;;;4934889;28;45664;-61
2022/05/22 08:52:34;;;;;;;0.90;0.50;;;27.60;40.90;;;;;;4949039;28;45525;-60
2022/05/22 08:55:10;;;;;;;;;;;27.60;40.90;;;;;;4952341;28;46182;-61
2022/05/22 09:00:27;;;;;;;0.60;0.60;;;27.60;40.90;;;;;;4932474;28;45629;-62
2022/05/22 09:03:25;;;;;;;0.95;0.63;;;27.60;40.90;;;;;;4933009;28;46612;-60
2022/05/22 09:05:53;;;;;;;0.40;0.40;;;27.70;40.90;;;;;;4933758;28;45958;-61
2022/05/22 09:08:23;;;;;;;2.08;0.70;;;27.70;40.90;;;;;;4933770;28;45634;-61
2022/05/22 09:11:04;;;;;;;0.80;0.60;;;27.70;40.80;;;;;;4948591;28;44696;-61
2022/05/22 09:13:29;;;;;;;2.00;0.73;;;27.70;40.80;;;;;;4950388;28;45280;-60
2022/05/22 09:16:13;;;;;;;0.50;0.50;;;27.70;40.80;;;;;;4950338;28;46045;-61
2022/05/22 09:19:08;;;;;;;1.50;0.55;;;27.70;40.90;;;;;;4945418;28;45357;-60
2022/05/22 09:21:55;;;;;;;1.75;0.68;;;27.80;40.90;;;;;;4946170;28;45416;-61
2022/05/22 09:24:49;;;;;;;0.52;0.52;;;27.80;40.80;;;;;;4949315;28;45643;-61
2022/05/22 09:27:23;;;;;;;0.82;0.57;;;27.80;40.90;;;;;;4930176;28;46975;-60
2022/05/22 09:30:07;;;;;;;0.85;0.65;;;27.80;40.80;;;;;;4931676;28;45623;-61
2022/05/22 09:32:48;;;;;;;0.63;0.63;;;27.80;40.80;;;;;;4948974;28;44829;-62
2022/05/22 09:35:34;;;;;;;0.85;0.70;;;27.80;40.70;;;;;;4932860;28;45352;-61
2022/05/22 09:38:14;;;;;;;0.63;0.57;;;27.80;40.70;;;;;;4948738;28;46415;-60
2022/05/22 09:40:43;;;;;;;0.68;0.60;;;27.90;40.80;;;;;;4931884;28;45336;-60
2022/05/22 09:43:49;;;;;;;0.55;0.52;;;27.90;40.80;;;;;;4950855;28;45059;-61
2022/05/22 09:46:55;;;;;;;1.48;0.65;;;27.90;40.80;;;;;;4935398;28;46281;-59
2022/05/22 09:49:45;;;;;;;0.88;0.40;;;27.90;40.80;;;;;;4900524;28;46511;-60
2022/05/22 09:52:24;;;;;;;1.05;0.50;;;27.90;41.50;;;;;;4938205;28;45314;-59
2022/05/22 09:55:04;;;;;;;1.13;0.75;;;27.90;41.00;;;;;;4934993;28;45303;-61
2022/05/22 09:58:01;;;;;;;0.50;0.50;;;27.90;40.90;;;;;;4951494;28;45358;-61
2022/05/22 10:00:53;;;;;;;0.52;0.50;;;27.90;40.90;;;;;;4952005;28;45969;-58
2022/05/22 10:04:10;;;;;;;0.50;0.40;;;27.90;41.00;;;;;;4954057;28;45329;-59
2022/05/22 10:06:59;;;;;;;0.88;0.60;;;27.90;41.00;;;;;;4937684;28;45431;-63
2022/05/22 10:10:05;;;;;;;0.75;0.50;;;27.90;41.00;;;;;;4967591;28;46463;-62
2022/05/22 10:12:53;;;;;;;1.08;0.50;;;27.90;41.00;;;;;;4932090;28;46980;-58
2022/05/22 10:15:53;;;;;;;0.60;0.57;;;28.00;41.10;;;;;;4964763;28;45261;-59
2022/05/22 10:18:25;;;;;;;0.50;0.38;;;27.90;41.00;;;;;;4965833;28;45660;-61
2022/05/22 10:20:53;;;;;;;1.70;0.50;;;27.90;41.00;;;;;;4959417;28;46055;-61
2022/05/22 10:23:50;;;;;;;0.77;0.50;;;27.90;41.10;;;;;;4979922;28;46164;-62
2022/05/22 10:26:34;;;;;;;0.50;0.50;;;27.90;41.00;;;;;;4982573;28;45167;-60
2022/05/22 10:29:30;;;;;;;0.65;0.43;;;28.00;41.00;;;;;;4967867;28;45198;-60
2022/05/22 10:32:05;;;;;;;1.10;0.60;;;28.00;41.00;;;;;;4937789;28;45431;-62
2022/05/22 10:34:36;;;;;;;0.77;0.50;;;28.00;41.00;;;;;;4953545;28;46224;-60
2022/05/22 10:37:09;;;;;;;0.77;0.68;;;28.00;41.00;;;;;;4974188;28;45363;-60
2022/05/22 10:39:34;;;;;;;0.80;0.57;;;28.00;40.90;;;;;;4955392;28;45638;-62
2022/05/22 10:44:57;;;;;;;0.63;0.43;;;28.00;40.90;;;;;;4963572;28;46271;-59
2022/05/22 10:47:29;;;;;;;0.70;0.52;;;28.10;40.90;;;;;;4907098;28;45326;-63
2022/05/22 10:49:55;;;;;;;;;;;28.10;40.90;;;;;;4971133;28;45388;-64
2022/05/22 10:52:25;;;;;;;0.40;0.40;;;28.10;40.90;;;;;;4967884;28;45285;-61
2022/05/22 10:54:53;;;;;;;1.17;0.65;;;28.10;40.90;;;;;;4962915;28;46140;-60
2022/05/22 10:57:26;;;;;;;0.50;0.50;;;28.10;40.90;;;;;;4966760;28;45652;-63
2022/05/22 10:59:52;;;;;;;1.63;0.63;;;28.10;40.90;;;;;;4955830;28;45359;-60
2022/05/22 11:02:28;;;;;;;0.88;0.57;;;28.10;40.90;;;;;;4958531;28;45098;-60
2022/05/22 11:04:55;;;;;;;1.63;0.90;;;28.10;40.90;;;;;;4956743;28;46314;-60
2022/05/22 11:07:29;;;;;;;0.93;0.50;;;28.10;41.00;;;;;;4945310;28;44670;-58
2022/05/22 11:09:55;;;;;;;0.55;0.55;;;28.10;40.90;;;;;;4957529;28;45305;-60
2022/05/22 11:12:22;;;;;;;1.17;0.70;;;28.10;40.90;;;;;;4958647;28;44813;-61
2022/05/22 11:14:48;;;;;;;0.60;0.57;;;28.10;41.00;;;;;;4959853;28;45081;-60
2022/05/22 11:17:14;;;;;;;0.60;0.60;;;28.10;40.90;;;;;;4957218;28;45302;-58
2022/05/22 11:19:41;;;;;;;0.60;0.60;;;28.20;41.00;;;;;;4955084;28;45245;-58
2022/05/22 11:22:37;;;;;;;1.85;0.50;;;28.10;41.00;;;;;;4956780;28;44789;-60
2022/05/22 11:25:31;;;;;;;0.88;0.65;;;28.20;41.00;;;;;;4954717;28;45157;-58
2022/05/22 11:28:18;;;;;;;0.68;0.60;;;28.20;41.00;;;;;;4951534;28;45551;-60
2022/05/22 11:30:46;;;;;;;0.55;0.47;;;28.20;41.00;;;;;;4953187;28;45447;-60
2022/05/22 11:33:30;;;;;;;0.40;0.40;;;28.20;41.00;;;;;;4952521;28;45458;-57
2022/05/22 11:36:30;;;;;;;0.40;0.40;;;28.20;41.10;;;;;;4941836;28;45436;-59
2022/05/22 11:39:19;;;;;;;0.43;0.43;;;28.20;41.00;;;;;;4932255;28;44739;-61
2022/05/22 11:42:00;;;;;;;0.65;0.50;;;28.20;41.00;;;;;;4952424;28;45311;-60
2022/05/22 11:44:45;;;;;;;1.13;0.50;;;28.20;41.10;;;;;;4931024;28;44752;-60
2022/05/22 11:47:10;;;;;;;0.55;0.50;;;28.20;41.10;;;;;;4957818;28;46014;-58
2022/05/22 11:50:01;;;;;;;0.70;0.50;;;28.20;41.10;;;;;;4954236;28;44847;-60
2022/05/22 11:52:55;;;;;;;1.70;0.60;;;28.30;41.20;;;;;;4954669;28;45356;-58
2022/05/22 11:55:40;;;;;;;0.75;0.50;;;28.20;41.10;;;;;;4957683;28;44782;-58
2022/05/22 11:58:18;;;;;;;0.88;0.60;;;28.20;41.00;;;;;;4946628;28;45261;-60
2022/05/22 12:00:44;;;;;;;0.77;0.63;;;28.20;41.00;;;;;;4954623;28;45265;-57
2022/05/22 12:03:36;;;;;;;0.63;0.63;;;28.30;41.10;;;;;;4958994;28;45205;-58
2022/05/22 12:06:14;;;;;;;0.65;0.50;;;28.30;41.10;;;;;;4942521;28;45419;-58
2022/05/22 12:08:42;;;;;;;1.10;0.52;;;28.30;41.20;;;;;;4953339;28;45297;-62
2022/05/22 12:11:18;;;;;;;0.60;0.50;;;28.30;41.20;;;;;;4949498;28;45198;-59
2022/05/22 12:13:57;;;;;;;1.23;0.70;;;28.30;41.20;;;;;;4941215;28;45413;-58
2022/05/22 12:16:28;;;;;;;0.60;0.60;;;28.30;41.20;;;;;;4956789;28;44950;-58
2022/05/22 12:19:05;;;;;;;0.88;0.60;;;28.30;41.20;;;;;;4940965;28;46589;-58
2022/05/22 12:21:39;;;;;;;0.82;0.50;;;28.30;41.20;;;;;;4954366;28;44942;-57
2022/05/22 12:24:07;;;;;;;1.02;0.80;;;28.30;41.10;;;;;;4944578;28;45223;-61
2022/05/22 12:26:33;;;;;;;0.60;0.60;;;28.30;41.10;;;;;;4942318;28;45497;-57
2022/05/22 12:29:01;;;;;;;1.00;0.70;;;28.30;41.10;;;;;;4940696;28;47095;-58
2022/05/22 12:31:42;;;;;;;0.57;0.50;;;28.30;41.10;;;;;;4956848;28;45447;-57
2022/05/22 12:34:18;;;;;;;1.05;0.50;;;28.40;41.10;;;;;;4943964;28;44924;-59
2022/05/22 12:36:46;;;;;;;1.05;0.60;;;28.40;41.10;;;;;;4940304;28;45294;-61
2022/05/22 12:39:13;;;;;;;1.35;0.60;;;28.40;41.10;;;;;;4952872;28;46080;-58
2022/05/22 12:42:00;;;;;;;0.50;0.50;;;28.40;41.10;;;;;;4955963;28;45253;-61
2022/05/22 12:44:28;;;;;;;0.98;0.57;;;28.40;41.60;;;;;;4957008;28;45317;-57
2022/05/22 12:46:54;;;;;;;1.08;0.70;;;28.40;41.10;;;;;;4940791;28;45642;-60
2022/05/22 12:49:24;;;;;;;0.90;0.55;;;28.40;41.10;;;;;;4933656;28;45373;-59
2022/05/22 12:52:14;;;;;;;2.20;0.50;;;28.40;41.70;;;;;;4951154;28;45217;-59
2022/05/22 12:54:39;;;;;;;0.63;0.60;;;28.40;41.00;;;;;;4954499;28;45312;-62
2022/05/22 12:57:17;;;;;;;0.50;0.50;;;28.40;41.10;;;;;;4953077;28;46781;-57
2022/05/22 12:59:57;;;;;;;0.50;0.50;;;28.40;41.10;;;;;;4954273;28;46254;-60
2022/05/22 13:02:35;;;;;;;0.68;0.50;;;28.40;41.30;;;;;;4952531;28;45221;-60
2022/05/22 13:05:01;;;;;;;0.70;0.47;;;28.40;41.30;;;;;;4938122;28;45294;-59
2022/05/22 13:07:33;;;;;;;0.50;0.50;;;28.40;41.20;;;;;;4947532;28;45228;-56
2022/05/22 13:09:59;;;;;;;0.45;0.45;;;28.40;41.20;;;;;;4936135;28;46267;-58
2022/05/22 13:12:30;;;;;;;0.85;0.57;;;28.40;41.20;;;;;;4953692;28;45364;-59
2022/05/22 13:14:57;;;;;;;0.77;0.60;;;28.40;41.30;;;;;;4933821;28;44945;-60
2022/05/22 13:17:40;;;;;;;0.85;0.52;;;28.40;41.30;;;;;;4942185;28;45528;-59
2022/05/22 13:20:08;;;;;;;0.50;0.50;;;28.40;41.40;;;;;;4962574;28;48212;-59
2022/05/22 13:22:40;;;;;;;0.40;0.40;;;28.40;41.30;;;;;;4956399;28;44646;-60
2022/05/22 13:25:10;;;;;;;0.40;0.40;;;28.50;41.40;;;;;;4962201;28;45231;-57
2022/05/22 13:27:38;;;;;;;0.60;0.60;;;28.50;41.40;;;;;;4945815;28;45521;-60
2022/05/22 13:30:15;;;;;;;0.50;0.50;;;28.50;41.40;;;;;;4956224;28;46049;-59
2022/05/22 13:32:45;;;;;;;1.17;0.60;;;28.50;41.40;;;;;;4958449;28;45184;-62
2022/05/22 13:35:13;;;;;;;0.68;0.43;;;28.50;41.30;;;;;;4957882;28;45200;-60
2022/05/22 13:37:44;;;;;;;1.98;0.60;;;28.50;41.30;;;;;;4956673;28;45547;-58
2022/05/22 13:40:12;;;;;;;0.52;0.52;;;28.50;41.30;;;;;;4928968;28;46365;-60
2022/05/22 13:43:05;;;;;;;1.33;0.57;;;28.50;41.30;;;;;;4939600;28;45404;-58
2022/05/22 13:45:40;;;;;;;;;;;28.50;41.30;;;;;;4930915;28;44935;-57
2022/05/22 13:48:23;;;;;;;0.60;0.40;;;28.50;41.40;;;;;;4958963;28;45421;-59
2022/05/22 13:54:03;;;;;;;0.70;0.55;;;28.50;41.40;;;;;;4957966;28;44810;-59
2022/05/22 13:56:50;;;;;;;0.73;0.50;;;28.50;41.30;;;;;;4944763;28;45021;-60
2022/05/22 13:59:25;;;;;;;1.45;0.70;;;28.50;41.20;;;;;;4942332;28;45238;-59
2022/05/22 14:01:50;;;;;;;1.08;0.60;;;28.50;41.20;;;;;;4949145;28;45993;-59
2022/05/22 14:04:16;;;;;;;0.68;0.60;;;28.50;41.20;;;;;;4958613;28;45546;-61
2022/05/22 14:06:41;;;;;;;1.08;0.60;;;28.50;41.20;;;;;;4941579;28;45268;-61
2022/05/22 14:09:08;;;;;;;0.75;0.60;;;28.60;41.20;;;;;;4961806;28;46084;-61
2022/05/22 14:11:35;;;;;;;0.60;0.60;;;28.60;41.20;;;;;;4945742;28;46254;-59
2022/05/22 14:14:08;;;;;;;0.60;0.50;;;28.60;41.20;;;;;;4943118;28;45271;-61
2022/05/22 14:16:40;;;;;;;1.08;0.52;;;28.60;41.20;;;;;;4927343;28;45418;-60
2022/05/22 14:19:08;;;;;;;0.85;0.47;;;28.60;41.20;;;;;;4946513;28;45505;-61
2022/05/22 14:21:44;;;;;;;1.00;0.70;;;28.60;41.20;;;;;;4940291;28;45381;-58
2022/05/22 14:27:31;;;;;;;1.27;0.60;;;28.60;41.20;;;;;;4959138;28;45332;-58
2022/05/22 14:30:20;;;;;;;0.47;0.47;;;28.60;41.20;;;;;;4957539;28;45422;-57
2022/05/22 14:33:09;;;;;;;0.80;0.70;;;28.60;41.20;;;;;;4959899;28;46057;-60
2022/05/22 14:35:37;;;;;;;0.70;0.60;;;28.70;41.30;;;;;;4931892;28;44817;-63
2022/05/22 14:38:19;;;;;;;0.65;0.43;;;28.60;41.20;;;;;;4947008;28;45777;-59
2022/05/22 14:40:54;;;;;;;0.50;0.50;;;28.70;41.30;;;;;;4953001;28;45264;-60
2022/05/22 14:43:22;;;;;;;0.57;0.57;;;28.70;41.30;;;;;;4957775;28;45250;-59
2022/05/22 14:45:51;;;;;;;0.50;0.50;;;28.70;41.20;;;;;;4924821;28;44777;-59
2022/05/22 14:48:30;;;;;;;0.70;0.70;;;28.70;41.30;;;;;;4958563;28;45752;-56
2022/05/22 14:51:02;;;;;;;0.60;0.60;;;28.70;41.30;;;;;;4934438;28;45356;-60
2022/05/22 14:53:32;;;;;;;2.35;0.60;;;28.70;41.30;;;;;;4940998;28;46046;-59
2022/05/22 14:56:09;;;;;;;0.65;0.60;;;28.70;41.40;;;;;;4957514;28;45209;-58
2022/05/22 14:58:37;;;;;;;0.60;0.60;;;28.70;41.30;;;;;;4924148;28;45155;-57
2022/05/22 15:01:10;;;;;;;0.55;0.55;;;28.70;41.30;;;;;;4946002;28;44996;-60
2022/05/22 15:03:40;;;;;;;;;;;28.70;41.40;;;;;;4953519;28;45996;-63
2022/05/22 15:06:05;;;;;;;0.68;0.50;;;28.60;41.40;;;;;;4958234;28;45292;-58
2022/05/22 15:08:40;;;;;;;0.90;0.60;;;28.60;41.30;;;;;;4950231;28;45190;-58
2022/05/22 15:11:26;;;;;;;0.60;0.60;;;28.70;41.30;;;;;;4953393;28;45033;-59
2022/05/22 15:13:59;;;;;;;0.70;0.70;;;28.70;41.30;;;;;;4939403;28;45909;-59
2022/05/22 15:16:30;;;;;;;0.63;0.63;;;28.70;41.20;;;;;;4958121;28;45364;-60
2022/05/22 15:25:27;;;;;;;0.85;0.50;;;28.70;41.20;;;;;;4942623;28;45607;-60
2022/05/22 15:27:36;;;;;;;0.70;0.60;;;28.70;41.30;;;;;;4959638;28;44699;-61
2022/05/22 15:30:14;;;;;;;1.15;0.65;;;28.70;41.30;;;;;;4936580;28;45019;-58
2022/05/22 15:32:43;;;;;;;0.43;0.43;;;28.80;41.40;;;;;;4953581;28;45304;-62
2022/05/22 15:35:09;;;;;;;0.60;0.57;;;28.70;41.30;;;;;;4954444;28;46007;-59
2022/05/22 15:37:43;;;;;;;0.60;0.60;;;28.70;41.30;;;;;;4934206;28;46109;-58
2022/05/22 15:40:09;;;;;;;0.93;0.52;;;28.70;41.20;;;;;;4936766;28;45085;-57
2022/05/22 15:42:35;;;;;;;0.50;0.50;;;28.70;41.20;;;;;;4933367;28;45071;-62
2022/05/22 15:45:06;;;;;;;1.33;0.70;;;28.70;41.20;;;;;;4924331;28;46147;-58
2022/05/22 15:47:33;;;;;;;0.47;0.47;;;28.70;41.20;;;;;;4956556;28;44653;-57
2022/05/22 15:52:56;;;;;;;0.60;0.60;;;28.80;41.30;;;;;;4940237;28;45701;-60
2022/05/22 15:55:23;;;;;;;0.70;0.60;;;28.80;41.30;;;;;;4946994;28;46024;-60
2022/05/22 15:57:49;;;;;;;0.50;0.50;;;28.80;41.30;;;;;;4945896;28;45015;-60
2022/05/22 16:00:15;;;;;;;0.57;0.55;;;28.70;41.30;;;;;;4950635;28;45518;-62
2022/05/22 16:02:42;;;;;;;0.82;0.70;;;28.70;41.30;;;;;;4950150;28;45652;-60
2022/05/22 16:05:17;;;;;;;0.80;0.70;;;28.80;41.40;;;;;;4946810;28;45545;-60
2022/05/22 16:07:49;;;;;;;0.63;0.60;;;28.70;41.30;;;;;;4953613;28;45297;-59
2022/05/22 16:10:15;;;;;;;1.92;0.88;;;28.70;41.30;;;;;;4949203;28;45346;-62
2022/05/22 16:12:41;;;;;;;0.98;0.68;;;28.70;41.40;;;;;;4950135;28;45655;-59
2022/05/22 16:15:07;;;;;;;0.93;0.60;;;28.70;41.40;;;;;;4950136;28;46213;-58
2022/05/22 16:17:34;;;;;;;2.35;0.60;;;28.70;41.40;;;;;;4951776;28;45433;-60
2022/05/22 16:20:04;;;;;;;0.57;0.55;;;28.70;41.40;;;;;;4948113;28;48148;-60
2022/05/22 16:22:30;;;;;;;0.93;0.60;;;28.70;41.50;;;;;;4933792;28;45375;-61
2022/05/22 16:24:55;;;;;;;0.75;0.50;;;28.70;41.50;;;;;;4952591;28;45496;-60
2022/05/22 16:27:21;;;;;;;1.05;0.70;;;28.70;41.60;;;;;;4951255;28;45424;-59
2022/05/22 16:29:49;;;;;;;0.57;0.57;;;28.70;41.60;;;;;;4952467;28;45264;-62
2022/05/22 16:32:16;;;;;;;0.98;0.68;;;28.70;41.60;;;;;;4948871;28;45476;-60